sensor_id;sensor_type;location;lat;lon;timestamp;pressure;altitude;pressure_sealevel;temperature;humidity
77351;BME280;66420;50.246;14.320;2023-05-25T00:02:31;100255.44;;;8.58;74.16
77351;BME280;66420;50.246;14.320;2023-05-25T00:05:17;100257.34;;;8.57;74.39
77351;BME280;66420;50.246;14.320;2023-05-25T00:08:01;100259.31;;;8.52;74.29
77351;BME280;66420;50.246;14.320;2023-05-25T00:10:46;100258.50;;;8.46;75.42
77351;BME280;66420;50.246;14.320;2023-05-25T00:13:31;100252.47;;;8.49;75.64
77351;BME280;66420;50.246;14.320;2023-05-25T00:16:15;100243.78;;;8.47;74.23
77351;BME280;66420;50.246;14.320;2023-05-25T00:19:00;100239.38;;;8.51;74.25
77351;BME280;66420;50.246;14.320;2023-05-25T00:21:47;100238.81;;;8.59;73.87
77351;BME280;66420;50.246;14.320;2023-05-25T00:24:32;100238.53;;;8.66;74.39
77351;BME280;66420;50.246;14.320;2023-05-25T00:27:17;100232.75;;;8.67;73.46
77351;BME280;66420;50.246;14.320;2023-05-25T00:30:02;100237.13;;;8.68;73.18
77351;BME280;66420;50.246;14.320;2023-05-25T00:32:47;100243.41;;;8.69;72.99
77351;BME280;66420;50.246;14.320;2023-05-25T00:35:32;100238.25;;;8.57;74.31
77351;BME280;66420;50.246;14.320;2023-05-25T00:38:17;100238.81;;;8.59;74.11
77351;BME280;66420;50.246;14.320;2023-05-25T00:41:02;100238.78;;;8.64;73.55
77351;BME280;66420;50.246;14.320;2023-05-25T00:43:47;100239.63;;;8.60;74.21
77351;BME280;66420;50.246;14.320;2023-05-25T00:46:33;100241.03;;;8.52;73.64
77351;BME280;66420;50.246;14.320;2023-05-25T00:49:19;100232.84;;;8.52;73.30
77351;BME280;66420;50.246;14.320;2023-05-25T00:52:05;100245.44;;;8.43;74.55
77351;BME280;66420;50.246;14.320;2023-05-25T00:54:53;100247.34;;;8.27;75.10
77351;BME280;66420;50.246;14.320;2023-05-25T00:57:40;100245.19;;;8.14;75.63
77351;BME280;66420;50.246;14.320;2023-05-25T01:00:26;100242.97;;;8.21;74.72
77351;BME280;66420;50.246;14.320;2023-05-25T01:03:13;100244.91;;;8.16;75.13
77351;BME280;66420;50.246;14.320;2023-05-25T01:06:01;100246.53;;;8.07;75.83
77351;BME280;66420;50.246;14.320;2023-05-25T01:08:53;100240.06;;;7.92;76.16
77351;BME280;66420;50.246;14.320;2023-05-25T01:11:45;100244.38;;;7.98;76.21
77351;BME280;66420;50.246;14.320;2023-05-25T01:14:33;100244.94;;;7.85;76.28
77351;BME280;66420;50.246;14.320;2023-05-25T01:17:19;100244.38;;;7.93;75.69
77351;BME280;66420;50.246;14.320;2023-05-25T01:20:05;100246.03;;;7.94;76.13
77351;BME280;66420;50.246;14.320;2023-05-25T01:23:15;100242.22;;;7.95;75.53
77351;BME280;66420;50.246;14.320;2023-05-25T01:26:04;100237.28;;;7.97;75.50
77351;BME280;66420;50.246;14.320;2023-05-25T01:28:51;100248.75;;;8.05;75.62
77351;BME280;66420;50.246;14.320;2023-05-25T01:31:38;100249.31;;;7.91;76.06
77351;BME280;66420;50.246;14.320;2023-05-25T01:34:24;100246.59;;;7.96;75.44
77351;BME280;66420;50.246;14.320;2023-05-25T01:37:10;100244.13;;;7.95;75.42
77351;BME280;66420;50.246;14.320;2023-05-25T01:40:00;100252.59;;;7.73;76.07
77351;BME280;66420;50.246;14.320;2023-05-25T01:42:46;100252.84;;;7.77;75.93
77351;BME280;66420;50.246;14.320;2023-05-25T01:45:31;100257.22;;;7.88;74.78
77351;BME280;66420;50.246;14.320;2023-05-25T01:48:41;100261.03;;;7.82;75.37
77351;BME280;66420;50.246;14.320;2023-05-25T01:51:34;100252.84;;;7.72;75.84
77351;BME280;66420;50.246;14.320;2023-05-25T01:54:25;100253.66;;;7.67;76.37
77351;BME280;66420;50.246;14.320;2023-05-25T01:57:14;100249.03;;;7.68;76.08
77351;BME280;66420;50.246;14.320;2023-05-25T02:00:02;100253.66;;;7.67;75.81
77351;BME280;66420;50.246;14.320;2023-05-25T02:02:47;100255.84;;;7.55;76.76
77351;BME280;66420;50.246;14.320;2023-05-25T02:05:34;100263.75;;;7.56;76.58
77351;BME280;66420;50.246;14.320;2023-05-25T02:08:19;100258.31;;;7.46;77.43
77351;BME280;66420;50.246;14.320;2023-05-25T02:11:05;100250.97;;;7.47;77.67
77351;BME280;66420;50.246;14.320;2023-05-25T02:13:50;100262.13;;;7.45;76.90
77351;BME280;66420;50.246;14.320;2023-05-25T02:16:34;100265.63;;;7.31;77.35
77351;BME280;66420;50.246;14.320;2023-05-25T02:19:19;100263.44;;;7.43;77.21
77351;BME280;66420;50.246;14.320;2023-05-25T02:22:04;100261.03;;;7.41;76.30
77351;BME280;66420;50.246;14.320;2023-05-25T02:24:49;100263.19;;;7.39;76.84
77351;BME280;66420;50.246;14.320;2023-05-25T02:27:35;100267.81;;;7.39;76.98
77351;BME280;66420;50.246;14.320;2023-05-25T02:30:20;100275.97;;;7.39;76.98
77351;BME280;66420;50.246;14.320;2023-05-25T02:33:05;100266.44;;;7.31;77.23
77351;BME280;66420;50.246;14.320;2023-05-25T02:35:50;100263.44;;;7.18;77.54
77351;BME280;66420;50.246;14.320;2023-05-25T02:38:34;100271.56;;;7.07;78.44
77351;BME280;66420;50.246;14.320;2023-05-25T02:41:19;100261.47;;;7.03;78.39
77351;BME280;66420;50.246;14.320;2023-05-25T02:44:05;100261.22;;;7.04;78.04
77351;BME280;66420;50.246;14.320;2023-05-25T02:46:49;100265.59;;;7.05;78.35
77351;BME280;66420;50.246;14.320;2023-05-25T02:49:34;100266.41;;;7.16;77.43
77351;BME280;66420;50.246;14.320;2023-05-25T02:52:19;100273.78;;;7.31;77.17
77351;BME280;66420;50.246;14.320;2023-05-25T02:55:05;100280.59;;;7.23;76.54
77351;BME280;66420;50.246;14.320;2023-05-25T02:57:50;100279.78;;;7.43;76.19
77351;BME280;66420;50.246;14.320;2023-05-25T03:00:35;100283.91;;;7.45;76.36
77351;BME280;66420;50.246;14.320;2023-05-25T03:03:21;100280.63;;;7.53;75.77
77351;BME280;66420;50.246;14.320;2023-05-25T03:06:06;100288.53;;;7.45;76.18
77351;BME280;66420;50.246;14.320;2023-05-25T03:08:51;100290.16;;;7.36;76.18
77351;BME280;66420;50.246;14.320;2023-05-25T03:11:35;100301.00;;;7.26;76.64
77351;BME280;66420;50.246;14.320;2023-05-25T03:14:20;100297.16;;;7.11;77.00
77351;BME280;66420;50.246;14.320;2023-05-25T03:17:04;100293.91;;;7.15;76.55
77351;BME280;66420;50.246;14.320;2023-05-25T03:19:49;100296.06;;;7.07;77.22
77351;BME280;66420;50.246;14.320;2023-05-25T03:22:34;100301.75;;;7.06;76.98
77351;BME280;66420;50.246;14.320;2023-05-25T03:25:19;100286.25;;;6.96;77.55
77351;BME280;66420;50.246;14.320;2023-05-25T03:28:03;100292.22;;;6.98;77.51
77351;BME280;66420;50.246;14.320;2023-05-25T03:30:48;100296.00;;;6.97;77.40
77351;BME280;66420;50.246;14.320;2023-05-25T03:33:34;100290.34;;;7.09;76.83
77351;BME280;66420;50.246;14.320;2023-05-25T03:36:18;100290.06;;;7.00;77.10
77351;BME280;66420;50.246;14.320;2023-05-25T03:39:04;100298.81;;;7.18;76.59
77351;BME280;66420;50.246;14.320;2023-05-25T03:41:49;100304.50;;;7.11;77.05
77351;BME280;66420;50.246;14.320;2023-05-25T03:44:34;100307.53;;;7.25;77.20
77351;BME280;66420;50.246;14.320;2023-05-25T03:47:19;100309.75;;;7.28;76.67
77351;BME280;66420;50.246;14.320;2023-05-25T03:50:04;100319.25;;;7.30;76.51
77351;BME280;66420;50.246;14.320;2023-05-25T03:52:50;100320.03;;;7.21;76.29
77351;BME280;66420;50.246;14.320;2023-05-25T03:55:35;100328.47;;;7.09;76.85
77351;BME280;66420;50.246;14.320;2023-05-25T03:58:20;100340.72;;;7.17;77.33
77351;BME280;66420;50.246;14.320;2023-05-25T04:01:04;100330.41;;;7.29;76.38
77351;BME280;66420;50.246;14.320;2023-05-25T04:03:49;100332.06;;;7.30;76.92
77351;BME280;66420;50.246;14.320;2023-05-25T04:06:34;100332.63;;;7.32;77.09
77351;BME280;66420;50.246;14.320;2023-05-25T04:09:20;100331.25;;;7.34;76.70
77351;BME280;66420;50.246;14.320;2023-05-25T04:12:05;100341.88;;;7.31;77.33
77351;BME280;66420;50.246;14.320;2023-05-25T04:14:50;100333.44;;;7.32;76.64
77351;BME280;66420;50.246;14.320;2023-05-25T04:17:35;100328.56;;;7.44;76.60
77351;BME280;66420;50.246;14.320;2023-05-25T04:20:20;100335.38;;;7.52;75.65
77351;BME280;66420;50.246;14.320;2023-05-25T04:23:05;100347.38;;;7.61;76.46
77351;BME280;66420;50.246;14.320;2023-05-25T04:25:50;100344.66;;;7.71;76.17
77351;BME280;66420;50.246;14.320;2023-05-25T04:28:35;100341.41;;;7.64;75.46
77351;BME280;66420;50.246;14.320;2023-05-25T04:31:21;100337.03;;;7.58;76.30
77351;BME280;66420;50.246;14.320;2023-05-25T04:34:08;100343.03;;;7.60;76.04
77351;BME280;66420;50.246;14.320;2023-05-25T04:36:53;100341.41;;;7.74;75.78
77351;BME280;66420;50.246;14.320;2023-05-25T04:39:39;100341.66;;;7.68;76.19
77351;BME280;66420;50.246;14.320;2023-05-25T04:42:24;100347.41;;;7.81;75.63
77351;BME280;66420;50.246;14.320;2023-05-25T04:45:09;100347.97;;;7.78;75.94
77351;BME280;66420;50.246;14.320;2023-05-25T04:47:53;100348.50;;;7.85;75.08
77351;BME280;66420;50.246;14.320;2023-05-25T04:50:39;100349.34;;;7.96;75.01
77351;BME280;66420;50.246;14.320;2023-05-25T04:53:24;100350.13;;;8.07;75.28
77351;BME280;66420;50.246;14.320;2023-05-25T04:56:09;100347.97;;;8.19;75.32
77351;BME280;66420;50.246;14.320;2023-05-25T04:58:54;100348.25;;;8.32;74.36
77351;BME280;66420;50.246;14.320;2023-05-25T05:01:38;100346.34;;;8.38;74.89
77351;BME280;66420;50.246;14.320;2023-05-25T05:04:24;100344.13;;;8.60;73.15
77351;BME280;66420;50.246;14.320;2023-05-25T05:07:08;100338.09;;;8.73;73.95
77351;BME280;66420;50.246;14.320;2023-05-25T05:09:53;100344.88;;;8.86;73.86
77351;BME280;66420;50.246;14.320;2023-05-25T05:12:38;100347.34;;;8.82;73.17
77351;BME280;66420;50.246;14.320;2023-05-25T05:15:23;100351.13;;;8.86;74.72
77351;BME280;66420;50.246;14.320;2023-05-25T05:18:08;100347.78;;;9.05;72.76
77351;BME280;66420;50.246;14.320;2023-05-25T05:20:53;100350.25;;;9.11;73.97
77351;BME280;66420;50.246;14.320;2023-05-25T05:23:38;100347.69;;;9.30;72.54
77351;BME280;66420;50.246;14.320;2023-05-25T05:26:23;100351.47;;;9.39;73.67
77351;BME280;66420;50.246;14.320;2023-05-25T05:29:08;100354.69;;;9.51;72.62
77351;BME280;66420;50.246;14.320;2023-05-25T05:31:54;100354.03;;;9.64;71.14
77351;BME280;66420;50.246;14.320;2023-05-25T05:34:39;100361.63;;;9.72;71.21
77351;BME280;66420;50.246;14.320;2023-05-25T05:37:23;100359.38;;;9.85;71.11
77351;BME280;66420;50.246;14.320;2023-05-25T05:40:08;100358.75;;;9.98;70.67
77351;BME280;66420;50.246;14.320;2023-05-25T05:42:54;100361.91;;;10.10;70.45
77351;BME280;66420;50.246;14.320;2023-05-25T05:45:52;100361.34;;;10.18;69.19
77351;BME280;66420;50.246;14.320;2023-05-25T05:48:37;100359.56;;;10.32;69.01
77351;BME280;66420;50.246;14.320;2023-05-25T05:51:22;100355.06;;;10.46;68.84
77351;BME280;66420;50.246;14.320;2023-05-25T05:54:06;100377.44;;;10.53;69.38
77351;BME280;66420;50.246;14.320;2023-05-25T05:56:51;100367.97;;;10.70;69.18
77351;BME280;66420;50.246;14.320;2023-05-25T05:59:35;100376.13;;;10.75;68.27
77351;BME280;66420;50.246;14.320;2023-05-25T06:02:20;100372.69;;;10.88;67.64
77351;BME280;66420;50.246;14.320;2023-05-25T06:05:04;100370.38;;;11.00;68.36
77351;BME280;66420;50.246;14.320;2023-05-25T06:07:50;100386.88;;;10.95;67.63
77351;BME280;66420;50.246;14.320;2023-05-25T06:10:35;100385.63;;;11.06;67.88
77351;BME280;66420;50.246;14.320;2023-05-25T06:13:20;100377.84;;;11.18;67.82
77351;BME280;66420;50.246;14.320;2023-05-25T06:16:05;100376.22;;;11.17;67.31
77351;BME280;66420;50.246;14.320;2023-05-25T06:18:50;100383.19;;;11.28;67.68
77351;BME280;66420;50.246;14.320;2023-05-25T06:21:34;100377.63;;;11.33;67.74
77351;BME280;66420;50.246;14.320;2023-05-25T06:24:20;100378.03;;;11.45;67.62
77351;BME280;66420;50.246;14.320;2023-05-25T06:27:05;100367.94;;;11.60;67.50
77351;BME280;66420;50.246;14.320;2023-05-25T06:29:49;100358.94;;;11.78;67.00
77351;BME280;66420;50.246;14.320;2023-05-25T06:32:34;100358.22;;;11.91;67.08
77351;BME280;66420;50.246;14.320;2023-05-25T06:35:19;100359.69;;;12.02;66.28
77351;BME280;66420;50.246;14.320;2023-05-25T06:38:03;100366.19;;;12.06;66.46
77351;BME280;66420;50.246;14.320;2023-05-25T06:40:48;100372.19;;;12.27;65.73
77351;BME280;66420;50.246;14.320;2023-05-25T06:43:32;100372.44;;;12.44;65.83
77351;BME280;66420;50.246;14.320;2023-05-25T06:46:17;100372.75;;;12.56;64.22
77351;BME280;66420;50.246;14.320;2023-05-25T06:49:01;100372.22;;;12.86;61.47
77351;BME280;66420;50.246;14.320;2023-05-25T06:51:46;100366.28;;;12.79;59.42
77351;BME280;66420;50.246;14.320;2023-05-25T06:54:32;100367.53;;;12.73;60.08
77351;BME280;66420;50.246;14.320;2023-05-25T06:57:16;100362.88;;;13.01;59.78
77351;BME280;66420;50.246;14.320;2023-05-25T07:00:01;100367.72;;;12.77;60.00
77351;BME280;66420;50.246;14.320;2023-05-25T07:02:46;100362.72;;;12.93;61.12
77351;BME280;66420;50.246;14.320;2023-05-25T07:05:30;100365.41;;;13.11;60.52
77351;BME280;66420;50.246;14.320;2023-05-25T07:08:15;100368.38;;;13.28;59.79
77351;BME280;66420;50.246;14.320;2023-05-25T07:10:59;100366.03;;;13.36;59.92
77351;BME280;66420;50.246;14.320;2023-05-25T07:13:44;100371.19;;;13.51;59.38
77351;BME280;66420;50.246;14.320;2023-05-25T07:16:29;100363.22;;;13.63;59.33
77351;BME280;66420;50.246;14.320;2023-05-25T07:19:15;100366.41;;;13.56;58.36
77351;BME280;66420;50.246;14.320;2023-05-25T07:22:00;100371.03;;;13.83;59.35
77351;BME280;66420;50.246;14.320;2023-05-25T07:24:45;100365.78;;;14.17;60.22
77351;BME280;66420;50.246;14.320;2023-05-25T07:27:30;100361.97;;;14.27;58.71
77351;BME280;66420;50.246;14.320;2023-05-25T07:30:15;100369.00;;;14.33;59.32
77351;BME280;66420;50.246;14.320;2023-05-25T07:33:00;100367.88;;;14.56;58.28
77351;BME280;66420;50.246;14.320;2023-05-25T07:35:45;100365.78;;;14.17;57.65
77351;BME280;66420;50.246;14.320;2023-05-25T07:38:29;100364.03;;;14.44;57.79
77351;BME280;66420;50.246;14.320;2023-05-25T07:41:14;100370.03;;;14.68;57.42
77351;BME280;66420;50.246;14.320;2023-05-25T07:43:59;100369.47;;;14.57;57.51
77351;BME280;66420;50.246;14.320;2023-05-25T07:46:44;100373.78;;;14.72;58.16
77351;BME280;66420;50.246;14.320;2023-05-25T07:49:29;100374.56;;;15.03;58.13
77351;BME280;66420;50.246;14.320;2023-05-25T07:52:15;100373.66;;;15.17;55.15
77351;BME280;66420;50.246;14.320;2023-05-25T07:55:00;100379.41;;;14.89;55.87
77351;BME280;66420;50.246;14.320;2023-05-25T07:57:45;100374.41;;;14.69;55.94
77351;BME280;66420;50.246;14.320;2023-05-25T08:00:30;100385.13;;;15.01;56.72
77351;BME280;66420;50.246;14.320;2023-05-25T08:03:15;100381.34;;;15.37;54.29
77351;BME280;66420;50.246;14.320;2023-05-25T08:05:59;100383.03;;;15.55;55.03
77351;BME280;66420;50.246;14.320;2023-05-25T08:08:45;100384.38;;;15.66;54.04
77351;BME280;66420;50.246;14.320;2023-05-25T08:11:30;100376.59;;;15.85;53.17
77351;BME280;66420;50.246;14.320;2023-05-25T08:14:15;100366.31;;;15.51;52.83
77351;BME280;66420;50.246;14.320;2023-05-25T08:17:00;100362.47;;;15.87;56.73
77351;BME280;66420;50.246;14.320;2023-05-25T08:19:45;100360.03;;;16.03;54.13
77351;BME280;66420;50.246;14.320;2023-05-25T08:22:30;100360.19;;;16.06;52.88
77351;BME280;66420;50.246;14.320;2023-05-25T08:25:15;100355.31;;;15.69;52.77
77351;BME280;66420;50.246;14.320;2023-05-25T08:27:59;100354.16;;;16.04;55.28
77351;BME280;66420;50.246;14.320;2023-05-25T08:30:44;100351.50;;;16.59;53.20
77351;BME280;66420;50.246;14.320;2023-05-25T08:33:30;100357.00;;;16.76;51.35
77351;BME280;66420;50.246;14.320;2023-05-25T08:36:14;100348.25;;;16.57;50.98
77351;BME280;66420;50.246;14.320;2023-05-25T08:38:59;100342.09;;;16.43;52.49
77351;BME280;66420;50.246;14.320;2023-05-25T08:41:44;100340.03;;;16.31;51.14
77351;BME280;66420;50.246;14.320;2023-05-25T08:44:29;100350.53;;;16.47;49.51
77351;BME280;66420;50.246;14.320;2023-05-25T08:47:15;100343.66;;;16.78;49.18
77351;BME280;66420;50.246;14.320;2023-05-25T08:50:02;100342.59;;;17.00;49.79
77351;BME280;66420;50.246;14.320;2023-05-25T08:52:50;100335.25;;;17.34;50.44
77351;BME280;66420;50.246;14.320;2023-05-25T08:55:38;100347.22;;;17.46;46.53
77351;BME280;66420;50.246;14.320;2023-05-25T08:58:30;100347.41;;;17.70;48.51
77351;BME280;66420;50.246;14.320;2023-05-25T09:01:17;100352.63;;;17.43;48.07
77351;BME280;66420;50.246;14.320;2023-05-25T09:04:03;100351.72;;;17.30;46.89
77351;BME280;66420;50.246;14.320;2023-05-25T09:06:48;100345.19;;;17.64;47.70
77351;BME280;66420;50.246;14.320;2023-05-25T09:09:34;100353.50;;;17.85;45.09
77351;BME280;66420;50.246;14.320;2023-05-25T09:12:21;100354.16;;;17.32;48.20
77351;BME280;66420;50.246;14.320;2023-05-25T09:15:09;100349.25;;;17.66;46.32
77351;BME280;66420;50.246;14.320;2023-05-25T09:17:54;100351.63;;;17.77;44.73
77351;BME280;66420;50.246;14.320;2023-05-25T09:20:39;100345.53;;;17.83;46.25
77351;BME280;66420;50.246;14.320;2023-05-25T09:23:25;100351.75;;;18.01;46.24
77351;BME280;66420;50.246;14.320;2023-05-25T09:26:09;100349.91;;;17.84;44.89
77351;BME280;66420;50.246;14.320;2023-05-25T09:28:54;100343.38;;;17.89;45.54
77351;BME280;66420;50.246;14.320;2023-05-25T09:31:39;100348.09;;;18.09;46.11
77351;BME280;66420;50.246;14.320;2023-05-25T09:34:29;100350.94;;;18.33;45.91
77351;BME280;66420;50.246;14.320;2023-05-25T09:37:17;100359.13;;;18.30;45.39
77351;BME280;66420;50.246;14.320;2023-05-25T09:40:04;100358.41;;;18.21;45.43
77351;BME280;66420;50.246;14.320;2023-05-25T09:42:49;100353.16;;;18.40;46.26
77351;BME280;66420;50.246;14.320;2023-05-25T09:45:34;100358.59;;;18.36;44.20
77351;BME280;66420;50.246;14.320;2023-05-25T09:48:21;100357.19;;;18.30;46.69
77351;BME280;66420;50.246;14.320;2023-05-25T09:51:07;100353.91;;;18.49;47.36
77351;BME280;66420;50.246;14.320;2023-05-25T09:53:53;100357.22;;;18.09;45.79
77351;BME280;66420;50.246;14.320;2023-05-25T09:56:37;100353.22;;;18.19;44.69
77351;BME280;66420;50.246;14.320;2023-05-25T09:59:22;100353.56;;;18.50;45.30
77351;BME280;66420;50.246;14.320;2023-05-25T10:02:07;100360.19;;;19.15;48.29
77351;BME280;66420;50.246;14.320;2023-05-25T10:04:52;100347.91;;;19.53;45.84
77351;BME280;66420;50.246;14.320;2023-05-25T10:07:37;100350.91;;;19.11;48.71
77351;BME280;66420;50.246;14.320;2023-05-25T10:10:23;100348.59;;;19.37;46.59
77351;BME280;66420;50.246;14.320;2023-05-25T10:13:09;100344.09;;;18.96;46.15
77351;BME280;66420;50.246;14.320;2023-05-25T10:15:54;100349.03;;;19.39;46.49
77351;BME280;66420;50.246;14.320;2023-05-25T10:18:46;100340.03;;;18.94;43.13
77351;BME280;66420;50.246;14.320;2023-05-25T10:21:32;100337.50;;;19.37;43.54
77351;BME280;66420;50.246;14.320;2023-05-25T10:24:33;100330.16;;;19.81;45.23
77351;BME280;66420;50.246;14.320;2023-05-25T10:27:23;100323.78;;;20.09;41.82
77351;BME280;66420;50.246;14.320;2023-05-25T10:30:08;100334.41;;;19.91;41.90
77351;BME280;66420;50.246;14.320;2023-05-25T10:32:54;100327.53;;;20.28;40.78
77351;BME280;66420;50.246;14.320;2023-05-25T10:35:42;100323.88;;;20.12;40.18
77351;BME280;66420;50.246;14.320;2023-05-25T10:38:29;100328.13;;;19.94;39.39
77351;BME280;66420;50.246;14.320;2023-05-25T10:41:15;100325.63;;;20.45;41.75
77351;BME280;66420;50.246;14.320;2023-05-25T10:44:00;100316.38;;;20.41;41.61
77351;BME280;66420;50.246;14.320;2023-05-25T10:46:46;100315.94;;;20.54;43.69
77351;BME280;66420;50.246;14.320;2023-05-25T10:49:33;100313.91;;;20.83;40.50
77351;BME280;66420;50.246;14.320;2023-05-25T10:52:18;100311.09;;;20.67;41.74
77351;BME280;66420;50.246;14.320;2023-05-25T10:55:04;100307.91;;;20.65;40.71
77351;BME280;66420;50.246;14.320;2023-05-25T10:58:06;100315.63;;;20.87;41.24
77351;BME280;66420;50.246;14.320;2023-05-25T11:01:02;100306.09;;;20.88;41.36
77351;BME280;66420;50.246;14.320;2023-05-25T11:03:56;100302.22;;;20.46;42.27
77351;BME280;66420;50.246;14.320;2023-05-25T11:07:28;100310.75;;;20.68;42.69
77351;BME280;66420;50.246;14.320;2023-05-25T11:10:14;100303.75;;;20.90;41.60
77351;BME280;66420;50.246;14.320;2023-05-25T11:13:22;100298.03;;;20.83;41.70
77351;BME280;66420;50.246;14.320;2023-05-25T11:19:13;100310.06;;;20.87;42.15
77351;BME280;66420;50.246;14.320;2023-05-25T11:22:18;100305.38;;;21.22;40.16
77351;BME280;66420;50.246;14.320;2023-05-25T11:28:32;100292.06;;;21.32;41.47
77351;BME280;66420;50.246;14.320;2023-05-25T11:31:33;100296.94;;;21.35;42.13
77351;BME280;66420;50.246;14.320;2023-05-25T11:34:21;100296.06;;;21.50;41.34
77351;BME280;66420;50.246;14.320;2023-05-25T11:37:07;100284.28;;;21.06;38.08
77351;BME280;66420;50.246;14.320;2023-05-25T11:39:53;100292.53;;;21.34;40.78
77351;BME280;66420;50.246;14.320;2023-05-25T11:42:38;100288.25;;;21.75;42.05
77351;BME280;66420;50.246;14.320;2023-05-25T11:45:30;100281.19;;;21.27;38.59
77351;BME280;66420;50.246;14.320;2023-05-25T11:48:16;100282.22;;;21.53;41.09
77351;BME280;66420;50.246;14.320;2023-05-25T11:51:05;100280.44;;;21.45;38.48
77351;BME280;66420;50.246;14.320;2023-05-25T11:53:50;100278.28;;;21.74;38.16
77351;BME280;66420;50.246;14.320;2023-05-25T11:56:35;100269.69;;;21.44;40.22
77351;BME280;66420;50.246;14.320;2023-05-25T11:59:19;100260.53;;;21.43;37.70
77351;BME280;66420;50.246;14.320;2023-05-25T12:02:04;100261.34;;;21.63;40.85
77351;BME280;66420;50.246;14.320;2023-05-25T12:04:53;100257.16;;;21.73;39.96
77351;BME280;66420;50.246;14.320;2023-05-25T12:07:42;100256.72;;;21.51;38.86
77351;BME280;66420;50.246;14.320;2023-05-25T12:10:27;100253.56;;;21.91;39.63
77351;BME280;66420;50.246;14.320;2023-05-25T12:13:12;100255.84;;;21.86;38.56
77351;BME280;66420;50.246;14.320;2023-05-25T12:15:58;100259.59;;;21.20;38.45
77351;BME280;66420;50.246;14.320;2023-05-25T12:18:44;100257.53;;;21.52;37.68
77351;BME280;66420;50.246;14.320;2023-05-25T12:21:28;100263.53;;;21.73;41.44
77351;BME280;66420;50.246;14.320;2023-05-25T12:24:13;100256.47;;;21.41;38.03
77351;BME280;66420;50.246;14.320;2023-05-25T12:26:58;100252.22;;;21.47;38.48
77351;BME280;66420;50.246;14.320;2023-05-25T12:29:46;100240.56;;;22.18;38.00
77351;BME280;66420;50.246;14.320;2023-05-25T12:32:31;100244.63;;;22.66;39.79
77351;BME280;66420;50.246;14.320;2023-05-25T12:35:15;100244.81;;;22.31;39.02
77351;BME280;66420;50.246;14.320;2023-05-25T12:38:13;100241.72;;;22.59;37.80
77351;BME280;66420;50.246;14.320;2023-05-25T12:44:40;100243.13;;;22.27;39.96
77351;BME280;66420;50.246;14.320;2023-05-25T12:47:25;100247.09;;;21.87;37.55
77351;BME280;66420;50.246;14.320;2023-05-25T12:50:13;100239.81;;;21.98;39.00
77351;BME280;66420;50.246;14.320;2023-05-25T12:53:02;100242.19;;;22.19;40.94
77351;BME280;66420;50.246;14.320;2023-05-25T12:55:47;100238.31;;;21.47;37.68
77351;BME280;66420;50.246;14.320;2023-05-25T12:58:31;100234.94;;;21.95;39.18
77351;BME280;66420;50.246;14.320;2023-05-25T13:01:16;100242.00;;;22.08;39.63
77351;BME280;66420;50.246;14.320;2023-05-25T13:04:01;100240.66;;;22.22;40.23
77351;BME280;66420;50.246;14.320;2023-05-25T13:06:46;100241.16;;;22.50;43.11
77351;BME280;66420;50.246;14.320;2023-05-25T13:09:31;100228.63;;;22.63;40.77
77351;BME280;66420;50.246;14.320;2023-05-25T13:12:16;100213.50;;;22.19;38.42
77351;BME280;66420;50.246;14.320;2023-05-25T13:15:01;100210.44;;;22.04;37.17
77351;BME280;66420;50.246;14.320;2023-05-25T13:17:47;100213.03;;;22.36;39.39
77351;BME280;66420;50.246;14.320;2023-05-25T13:20:32;100213.09;;;22.39;38.98
77351;BME280;66420;50.246;14.320;2023-05-25T13:23:17;100221.94;;;22.45;38.67
77351;BME280;66420;50.246;14.320;2023-05-25T13:26:01;100216.75;;;22.01;38.01
77351;BME280;66420;50.246;14.320;2023-05-25T13:28:47;100216.47;;;21.68;39.58
77351;BME280;66420;50.246;14.320;2023-05-25T13:31:32;100207.28;;;21.29;42.07
77351;BME280;66420;50.246;14.320;2023-05-25T13:34:17;100208.69;;;21.77;39.17
77351;BME280;66420;50.246;14.320;2023-05-25T13:37:01;100195.34;;;22.05;41.27
77351;BME280;66420;50.246;14.320;2023-05-25T13:39:46;100192.59;;;22.09;38.58
77351;BME280;66420;50.246;14.320;2023-05-25T13:42:31;100198.38;;;22.20;38.04
77351;BME280;66420;50.246;14.320;2023-05-25T13:45:15;100201.53;;;21.76;37.96
77351;BME280;66420;50.246;14.320;2023-05-25T13:48:01;100197.13;;;21.94;37.90
77351;BME280;66420;50.246;14.320;2023-05-25T13:50:47;100199.91;;;21.75;39.75
77351;BME280;66420;50.246;14.320;2023-05-25T13:53:32;100199.75;;;22.06;39.15
77351;BME280;66420;50.246;14.320;2023-05-25T13:56:17;100190.38;;;22.18;39.40
77351;BME280;66420;50.246;14.320;2023-05-25T13:59:02;100188.22;;;22.31;39.89
77351;BME280;66420;50.246;14.320;2023-05-25T14:01:47;100192.66;;;22.32;41.38
77351;BME280;66420;50.246;14.320;2023-05-25T14:04:32;100188.47;;;22.45;40.45
77351;BME280;66420;50.246;14.320;2023-05-25T14:07:17;100195.41;;;22.54;40.03
77351;BME280;66420;50.246;14.320;2023-05-25T14:10:02;100185.00;;;22.29;39.87
77351;BME280;66420;50.246;14.320;2023-05-25T14:12:46;100192.72;;;22.62;38.23
77351;BME280;66420;50.246;14.320;2023-05-25T14:15:31;100181.28;;;22.44;39.89
77351;BME280;66420;50.246;14.320;2023-05-25T14:18:15;100192.63;;;22.54;40.36
77351;BME280;66420;50.246;14.320;2023-05-25T14:21:00;100188.78;;;22.40;38.30
77351;BME280;66420;50.246;14.320;2023-05-25T14:23:45;100184.41;;;21.97;38.96
77351;BME280;66420;50.246;14.320;2023-05-25T14:26:30;100186.41;;;22.42;41.34
77351;BME280;66420;50.246;14.320;2023-05-25T14:29:14;100181.94;;;22.60;41.47
77351;BME280;66420;50.246;14.320;2023-05-25T14:31:59;100195.28;;;22.70;39.97